Weather at Kumanovo Heliport

Public forecast

Using degrees Celsius for public forecast. Weather courtesy of forecast.io.

Closest aviation weather report (METAR) to Kumanovo Heliport

Closest report is Skopje International Airport, 11.4 nm (21.1 km) SSW.

2024/05/26 17:20 (retrieved 13 seconds ago)

LWSK 261720Z 11004KT 020V150 9999 SCT040 19/15 Q1015 NOSIG

Closest aviation forecast (TAF) to Kumanovo Heliport

Closest forecast is Skopje International Airport, 11.4 nm (21.1 km) SSW.

2024/05/26 15:00 Ammendment (retrieved 2 hours ago)

TAF AMD LWSK 261455Z 2615/2715 VRB03KT 9999 FEW040 TEMPO 2615/2618 VRB15KT TSRA FEW033CB SCT040